sensor_id;sensor_type;location;lat;lon;timestamp;pressure;altitude;pressure_sealevel;temperature;humidity
80401;BME280;69727;53.132;8.230;2024-01-30T00:00:39;102667.81;;;6.21;76.91
80401;BME280;69727;53.132;8.230;2024-01-30T00:03:04;102670.97;;;6.15;77.35
80401;BME280;69727;53.132;8.230;2024-01-30T00:05:30;102675.34;;;6.16;77.02
80401;BME280;69727;53.132;8.230;2024-01-30T00:07:55;102672.41;;;6.19;77.70
80401;BME280;69727;53.132;8.230;2024-01-30T00:10:20;102668.91;;;6.18;77.63
80401;BME280;69727;53.132;8.230;2024-01-30T00:12:46;102653.66;;;6.09;77.57
80401;BME280;69727;53.132;8.230;2024-01-30T00:15:11;102676.78;;;6.20;77.76
80401;BME280;69727;53.132;8.230;2024-01-30T00:17:37;102669.00;;;6.17;77.72
80401;BME280;69727;53.132;8.230;2024-01-30T00:20:03;102661.16;;;6.15;77.88
80401;BME280;69727;53.132;8.230;2024-01-30T00:22:31;102663.81;;;6.15;77.96
80401;BME280;69727;53.132;8.230;2024-01-30T00:24:57;102662.72;;;6.18;77.72
80401;BME280;69727;53.132;8.230;2024-01-30T00:27:22;102657.66;;;6.15;77.75
80401;BME280;69727;53.132;8.230;2024-01-30T00:29:47;102657.66;;;6.15;78.13
80401;BME280;69727;53.132;8.230;2024-01-30T00:32:13;102653.16;;;6.15;78.20
80401;BME280;69727;53.132;8.230;2024-01-30T00:34:38;102644.44;;;6.13;78.42
80401;BME280;69727;53.132;8.230;2024-01-30T00:37:04;102646.63;;;6.08;78.18
80401;BME280;69727;53.132;8.230;2024-01-30T00:39:29;102634.59;;;6.14;78.53
80401;BME280;69727;53.132;8.230;2024-01-30T00:41:55;102639.59;;;6.07;78.40
80401;BME280;69727;53.132;8.230;2024-01-30T00:44:20;102640.66;;;6.05;78.67
80401;BME280;69727;53.132;8.230;2024-01-30T00:46:45;102643.22;;;6.06;78.91
80401;BME280;69727;53.132;8.230;2024-01-30T00:49:11;102647.69;;;6.06;78.91
80401;BME280;69727;53.132;8.230;2024-01-30T00:51:36;102643.09;;;5.97;79.33
80401;BME280;69727;53.132;8.230;2024-01-30T00:54:02;102639.97;;;6.03;79.00
80401;BME280;69727;53.132;8.230;2024-01-30T00:56:28;102639.97;;;6.03;78.93
80401;BME280;69727;53.132;8.230;2024-01-30T00:58:53;102625.63;;;5.81;79.75
80401;BME280;69727;53.132;8.230;2024-01-30T01:01:19;102628.03;;;5.84;80.12
80401;BME280;69727;53.132;8.230;2024-01-30T01:03:44;102635.47;;;5.92;79.62
80401;BME280;69727;53.132;8.230;2024-01-30T01:06:10;102626.63;;;5.91;79.32
80401;BME280;69727;53.132;8.230;2024-01-30T01:08:36;102628.69;;;5.88;79.28
80401;BME280;69727;53.132;8.230;2024-01-30T01:11:01;102624.31;;;5.87;79.70
80401;BME280;69727;53.132;8.230;2024-01-30T01:13:28;102624.53;;;5.84;79.52
80401;BME280;69727;53.132;8.230;2024-01-30T01:15:54;102619.31;;;5.82;79.72
80401;BME280;69727;53.132;8.230;2024-01-30T01:18:20;102619.19;;;5.84;79.55
80401;BME280;69727;53.132;8.230;2024-01-30T01:20:45;102631.09;;;5.80;79.58
80401;BME280;69727;53.132;8.230;2024-01-30T01:23:11;102627.47;;;5.81;79.91
80401;BME280;69727;53.132;8.230;2024-01-30T01:25:36;102625.03;;;5.78;79.87
80401;BME280;69727;53.132;8.230;2024-01-30T01:28:01;102622.59;;;5.75;79.28
80401;BME280;69727;53.132;8.230;2024-01-30T01:30:27;102628.75;;;5.75;79.61
80401;BME280;69727;53.132;8.230;2024-01-30T01:32:54;102626.25;;;5.74;79.42
80401;BME280;69727;53.132;8.230;2024-01-30T01:35:26;102627.22;;;5.73;79.72
80401;BME280;69727;53.132;8.230;2024-01-30T01:37:52;102634.34;;;5.72;79.45
80401;BME280;69727;53.132;8.230;2024-01-30T01:40:24;102630.94;;;5.70;79.26
80401;BME280;69727;53.132;8.230;2024-01-30T01:42:50;102634.69;;;5.68;79.36
80401;BME280;69727;53.132;8.230;2024-01-30T01:45:17;102626.84;;;5.66;79.61
80401;BME280;69727;53.132;8.230;2024-01-30T01:47:43;102638.69;;;5.62;79.79
80401;BME280;69727;53.132;8.230;2024-01-30T01:50:12;102634.47;;;5.60;79.86
80401;BME280;69727;53.132;8.230;2024-01-30T01:52:39;102629.38;;;5.57;80.19
80401;BME280;69727;53.132;8.230;2024-01-30T01:55:06;102623.06;;;5.58;80.57
80401;BME280;69727;53.132;8.230;2024-01-30T01:57:33;102619.78;;;5.43;81.47
80401;BME280;69727;53.132;8.230;2024-01-30T01:59:58;102624.41;;;5.52;80.81
80401;BME280;69727;53.132;8.230;2024-01-30T02:02:26;102612.41;;;5.46;81.36
80401;BME280;69727;53.132;8.230;2024-01-30T02:04:56;102609.75;;;5.46;81.55
80401;BME280;69727;53.132;8.230;2024-01-30T02:07:22;102600.06;;;5.45;81.53
80401;BME280;69727;53.132;8.230;2024-01-30T02:09:47;102599.44;;;5.42;82.21
80401;BME280;69727;53.132;8.230;2024-01-30T02:12:13;102595.44;;;5.47;82.08
80401;BME280;69727;53.132;8.230;2024-01-30T02:14:48;102593.25;;;5.41;82.41
80401;BME280;69727;53.132;8.230;2024-01-30T02:17:15;102585.63;;;5.48;82.09
80401;BME280;69727;53.132;8.230;2024-01-30T02:19:41;102589.63;;;5.42;82.56
80401;BME280;69727;53.132;8.230;2024-01-30T02:22:07;102585.75;;;5.35;82.50
80401;BME280;69727;53.132;8.230;2024-01-30T02:24:33;102594.59;;;5.36;82.48
80401;BME280;69727;53.132;8.230;2024-01-30T02:26:58;102587.34;;;5.38;82.46
80401;BME280;69727;53.132;8.230;2024-01-30T02:29:24;102585.38;;;5.40;82.27
80401;BME280;69727;53.132;8.230;2024-01-30T02:31:49;102578.97;;;5.42;82.07
80401;BME280;69727;53.132;8.230;2024-01-30T02:34:15;102578.03;;;5.43;81.82
80401;BME280;69727;53.132;8.230;2024-01-30T02:36:43;102579.59;;;5.46;81.42
80401;BME280;69727;53.132;8.230;2024-01-30T02:39:09;102566.50;;;5.43;81.43
80401;BME280;69727;53.132;8.230;2024-01-30T02:41:35;102576.31;;;5.42;81.47
80401;BME280;69727;53.132;8.230;2024-01-30T02:44:01;102566.50;;;5.43;81.15
80401;BME280;69727;53.132;8.230;2024-01-30T02:46:27;102568.22;;;5.44;81.38
80401;BME280;69727;53.132;8.230;2024-01-30T02:48:52;102562.25;;;5.40;81.12
80401;BME280;69727;53.132;8.230;2024-01-30T02:51:17;102559.00;;;5.37;81.28
80401;BME280;69727;53.132;8.230;2024-01-30T02:53:43;102551.97;;;5.36;81.50
80401;BME280;69727;53.132;8.230;2024-01-30T02:56:08;102558.28;;;5.35;81.23
80401;BME280;69727;53.132;8.230;2024-01-30T02:58:41;102559.84;;;5.37;81.33
80401;BME280;69727;53.132;8.230;2024-01-30T03:01:07;102546.06;;;5.32;81.79
80401;BME280;69727;53.132;8.230;2024-01-30T03:03:32;102554.88;;;5.33;81.48
80401;BME280;69727;53.132;8.230;2024-01-30T03:06:00;102560.09;;;5.34;81.65
80401;BME280;69727;53.132;8.230;2024-01-30T03:08:25;102555.72;;;5.33;81.89
80401;BME280;69727;53.132;8.230;2024-01-30T03:10:51;102550.53;;;5.32;81.99
80401;BME280;69727;53.132;8.230;2024-01-30T03:13:16;102558.38;;;5.33;81.60
80401;BME280;69727;53.132;8.230;2024-01-30T03:15:42;102551.88;;;5.37;81.99
80401;BME280;69727;53.132;8.230;2024-01-30T03:18:07;102548.25;;;5.38;81.61
80401;BME280;69727;53.132;8.230;2024-01-30T03:20:32;102548.59;;;5.45;81.55
80401;BME280;69727;53.132;8.230;2024-01-30T03:22:59;102551.00;;;5.48;81.49
80401;BME280;69727;53.132;8.230;2024-01-30T03:25:25;102546.53;;;5.48;81.57
80401;BME280;69727;53.132;8.230;2024-01-30T03:27:50;102543.75;;;5.50;81.62
80401;BME280;69727;53.132;8.230;2024-01-30T03:30:16;102539.50;;;5.47;82.02
80401;BME280;69727;53.132;8.230;2024-01-30T03:32:42;102539.50;;;5.47;82.38
80401;BME280;69727;53.132;8.230;2024-01-30T03:35:08;102536.59;;;5.50;82.31
80401;BME280;69727;53.132;8.230;2024-01-30T03:37:33;102528.72;;;5.49;82.48
80401;BME280;69727;53.132;8.230;2024-01-30T03:39:59;102531.66;;;5.46;82.75
80401;BME280;69727;53.132;8.230;2024-01-30T03:42:24;102531.50;;;5.47;82.86
80401;BME280;69727;53.132;8.230;2024-01-30T03:44:50;102522.56;;;5.48;82.86
80401;BME280;69727;53.132;8.230;2024-01-30T03:47:18;102518.91;;;5.49;82.70
80401;BME280;69727;53.132;8.230;2024-01-30T03:49:44;102513.47;;;5.51;82.70
80401;BME280;69727;53.132;8.230;2024-01-30T03:52:10;102515.06;;;5.53;83.19
80401;BME280;69727;53.132;8.230;2024-01-30T03:54:35;102512.16;;;5.45;83.22
80401;BME280;69727;53.132;8.230;2024-01-30T03:57:01;102515.66;;;5.46;83.57
80401;BME280;69727;53.132;8.230;2024-01-30T03:59:26;102505.88;;;5.46;83.05
80401;BME280;69727;53.132;8.230;2024-01-30T04:01:51;102497.47;;;5.40;83.29
80401;BME280;69727;53.132;8.230;2024-01-30T04:04:20;102505.34;;;5.41;83.84
80401;BME280;69727;53.132;8.230;2024-01-30T04:06:46;102504.66;;;5.39;83.89
80401;BME280;69727;53.132;8.230;2024-01-30T04:09:14;102496.41;;;5.42;83.78
80401;BME280;69727;53.132;8.230;2024-01-30T04:11:40;102494.94;;;5.49;83.96
80401;BME280;69727;53.132;8.230;2024-01-30T04:14:07;102496.88;;;5.47;83.64
80401;BME280;69727;53.132;8.230;2024-01-30T04:16:32;102493.50;;;5.45;84.06
80401;BME280;69727;53.132;8.230;2024-01-30T04:18:58;102501.34;;;5.47;83.90
80401;BME280;69727;53.132;8.230;2024-01-30T04:21:23;102494.81;;;5.51;84.02
80401;BME280;69727;53.132;8.230;2024-01-30T04:23:50;102486.94;;;5.49;83.76
80401;BME280;69727;53.132;8.230;2024-01-30T04:26:15;102487.91;;;5.48;84.51
80401;BME280;69727;53.132;8.230;2024-01-30T04:28:42;102478.72;;;5.41;84.77
80401;BME280;69727;53.132;8.230;2024-01-30T04:31:07;102489.88;;;5.46;84.57
80401;BME280;69727;53.132;8.230;2024-01-30T04:33:33;102490.84;;;5.45;84.65
80401;BME280;69727;53.132;8.230;2024-01-30T04:35:58;102487.69;;;5.51;84.68
80401;BME280;69727;53.132;8.230;2024-01-30T04:38:24;102488.16;;;5.57;83.97
80401;BME280;69727;53.132;8.230;2024-01-30T04:40:49;102488.16;;;5.57;83.88
80401;BME280;69727;53.132;8.230;2024-01-30T04:43:14;102489.97;;;5.56;84.31
80401;BME280;69727;53.132;8.230;2024-01-30T04:45:41;102490.69;;;5.47;83.79
80401;BME280;69727;53.132;8.230;2024-01-30T04:48:06;102501.97;;;5.50;83.89
80401;BME280;69727;53.132;8.230;2024-01-30T04:50:32;102487.69;;;5.51;83.87
80401;BME280;69727;53.132;8.230;2024-01-30T04:52:57;102490.81;;;5.57;83.42
80401;BME280;69727;53.132;8.230;2024-01-30T04:55:23;102481.13;;;5.56;83.54
80401;BME280;69727;53.132;8.230;2024-01-30T04:57:48;102492.91;;;5.53;83.25
80401;BME280;69727;53.132;8.230;2024-01-30T05:00:14;102483.09;;;5.53;83.33
80401;BME280;69727;53.132;8.230;2024-01-30T05:02:40;102479.06;;;5.59;83.17
80401;BME280;69727;53.132;8.230;2024-01-30T05:05:05;102479.06;;;5.59;83.24
80401;BME280;69727;53.132;8.230;2024-01-30T05:07:31;102481.63;;;5.61;83.29
80401;BME280;69727;53.132;8.230;2024-01-30T05:09:56;102477.97;;;5.62;83.44
80401;BME280;69727;53.132;8.230;2024-01-30T05:12:22;102476.03;;;5.64;82.91
80401;BME280;69727;53.132;8.230;2024-01-30T05:14:47;102476.66;;;5.67;83.22
80401;BME280;69727;53.132;8.230;2024-01-30T05:17:12;102474.81;;;5.68;82.96
80401;BME280;69727;53.132;8.230;2024-01-30T05:19:38;102480.97;;;5.68;83.28
80401;BME280;69727;53.132;8.230;2024-01-30T05:22:04;102479.44;;;5.66;82.79
80401;BME280;69727;53.132;8.230;2024-01-30T05:24:29;102488.13;;;5.68;83.04
80401;BME280;69727;53.132;8.230;2024-01-30T05:26:55;102485.47;;;5.68;83.09
80401;BME280;69727;53.132;8.230;2024-01-30T05:29:20;102481.97;;;5.67;83.06
80401;BME280;69727;53.132;8.230;2024-01-30T05:31:46;102491.91;;;5.65;83.15
80401;BME280;69727;53.132;8.230;2024-01-30T05:34:11;102479.66;;;5.63;83.26
80401;BME280;69727;53.132;8.230;2024-01-30T05:36:36;102473.38;;;5.64;83.70
80401;BME280;69727;53.132;8.230;2024-01-30T05:39:02;102481.75;;;5.59;84.08
80401;BME280;69727;53.132;8.230;2024-01-30T05:41:27;102481.38;;;5.52;84.18
80401;BME280;69727;53.132;8.230;2024-01-30T05:43:53;102484.91;;;5.53;84.35
80401;BME280;69727;53.132;8.230;2024-01-30T05:46:18;102478.13;;;5.60;84.04
80401;BME280;69727;53.132;8.230;2024-01-30T05:48:44;102477.97;;;5.62;84.27
80401;BME280;69727;53.132;8.230;2024-01-30T05:51:09;102476.16;;;5.62;83.72
80401;BME280;69727;53.132;8.230;2024-01-30T05:53:34;102472.78;;;5.60;84.22
80401;BME280;69727;53.132;8.230;2024-01-30T05:56:03;102466.97;;;5.55;84.08
80401;BME280;69727;53.132;8.230;2024-01-30T05:58:29;102464.06;;;5.58;84.06
80401;BME280;69727;53.132;8.230;2024-01-30T06:00:54;102463.22;;;5.58;84.58
80401;BME280;69727;53.132;8.230;2024-01-30T06:03:20;102467.69;;;5.57;84.94
80401;BME280;69727;53.132;8.230;2024-01-30T06:05:45;102463.22;;;5.58;85.05
80401;BME280;69727;53.132;8.230;2024-01-30T06:08:11;102471.31;;;5.56;85.16
80401;BME280;69727;53.132;8.230;2024-01-30T06:10:36;102474.94;;;5.66;85.22
80401;BME280;69727;53.132;8.230;2024-01-30T06:13:01;102473.72;;;5.70;84.86
80401;BME280;69727;53.132;8.230;2024-01-30T06:15:27;102471.78;;;5.72;84.62
80401;BME280;69727;53.132;8.230;2024-01-30T06:17:55;102467.19;;;5.74;84.57
80401;BME280;69727;53.132;8.230;2024-01-30T06:20:20;102467.66;;;5.79;84.14
80401;BME280;69727;53.132;8.230;2024-01-30T06:22:45;102453.47;;;5.79;84.17
80401;BME280;69727;53.132;8.230;2024-01-30T06:25:11;102455.06;;;5.81;84.37
80401;BME280;69727;53.132;8.230;2024-01-30T06:27:37;102443.53;;;5.81;83.74
80401;BME280;69727;53.132;8.230;2024-01-30T06:30:03;102447.69;;;5.74;84.22
80401;BME280;69727;53.132;8.230;2024-01-30T06:32:29;102445.59;;;5.77;84.44
80401;BME280;69727;53.132;8.230;2024-01-30T06:34:59;102445.13;;;5.72;84.01
80401;BME280;69727;53.132;8.230;2024-01-30T06:37:25;102434.13;;;5.66;84.66
80401;BME280;69727;53.132;8.230;2024-01-30T06:39:50;102440.16;;;5.79;83.94
80401;BME280;69727;53.132;8.230;2024-01-30T06:42:17;102440.16;;;5.79;84.06
80401;BME280;69727;53.132;8.230;2024-01-30T06:44:42;102447.06;;;5.81;83.51
80401;BME280;69727;53.132;8.230;2024-01-30T06:47:07;102442.00;;;5.67;84.45
80401;BME280;69727;53.132;8.230;2024-01-30T06:49:33;102441.84;;;5.69;84.61
80401;BME280;69727;53.132;8.230;2024-01-30T06:51:58;102443.56;;;5.70;84.38
80401;BME280;69727;53.132;8.230;2024-01-30T06:54:24;102449.50;;;5.73;84.06
80401;BME280;69727;53.132;8.230;2024-01-30T06:56:49;102444.16;;;5.73;84.13
80401;BME280;69727;53.132;8.230;2024-01-30T06:59:15;102454.97;;;5.61;84.37
80401;BME280;69727;53.132;8.230;2024-01-30T07:01:40;102457.66;;;5.49;85.54
80401;BME280;69727;53.132;8.230;2024-01-30T07:04:06;102458.63;;;5.60;84.97
80401;BME280;69727;53.132;8.230;2024-01-30T07:06:31;102445.38;;;5.69;84.45
80401;BME280;69727;53.132;8.230;2024-01-30T07:08:57;102446.09;;;5.71;84.21
80401;BME280;69727;53.132;8.230;2024-01-30T07:11:22;102445.97;;;5.73;84.70
80401;BME280;69727;53.132;8.230;2024-01-30T07:13:50;102440.25;;;5.77;84.25
80401;BME280;69727;53.132;8.230;2024-01-30T07:16:16;102433.34;;;5.75;84.19
80401;BME280;69727;53.132;8.230;2024-01-30T07:18:43;102436.16;;;5.73;84.83
80401;BME280;69727;53.132;8.230;2024-01-30T07:21:08;102437.50;;;5.68;85.05
80401;BME280;69727;53.132;8.230;2024-01-30T07:23:33;102430.13;;;5.71;84.66
80401;BME280;69727;53.132;8.230;2024-01-30T07:26:00;102434.19;;;5.75;84.44
80401;BME280;69727;53.132;8.230;2024-01-30T07:28:26;102435.16;;;5.85;84.33
80401;BME280;69727;53.132;8.230;2024-01-30T07:30:51;102436.25;;;5.83;84.55
80401;BME280;69727;53.132;8.230;2024-01-30T07:33:17;102424.03;;;5.80;84.35
80401;BME280;69727;53.132;8.230;2024-01-30T07:35:42;102444.00;;;5.86;84.54
80401;BME280;69727;53.132;8.230;2024-01-30T07:38:07;102444.97;;;5.85;84.50
80401;BME280;69727;53.132;8.230;2024-01-30T07:40:33;102453.69;;;5.87;84.67
80401;BME280;69727;53.132;8.230;2024-01-30T07:42:58;102455.16;;;5.91;84.70
80401;BME280;69727;53.132;8.230;2024-01-30T07:45:24;102437.66;;;6.09;84.22
80401;BME280;69727;53.132;8.230;2024-01-30T07:47:51;102442.69;;;6.23;83.42
80401;BME280;69727;53.132;8.230;2024-01-30T07:50:17;102440.97;;;6.22;83.84
80401;BME280;69727;53.132;8.230;2024-01-30T07:52:43;102443.50;;;6.24;83.47
80401;BME280;69727;53.132;8.230;2024-01-30T07:55:08;102448.25;;;6.20;83.61
80401;BME280;69727;53.132;8.230;2024-01-30T07:57:34;102445.72;;;6.19;83.95
80401;BME280;69727;53.132;8.230;2024-01-30T08:00:00;102451.66;;;6.22;83.50
80401;BME280;69727;53.132;8.230;2024-01-30T08:02:25;102463.50;;;6.29;83.55
80401;BME280;69727;53.132;8.230;2024-01-30T08:04:51;102456.28;;;6.41;83.19
80401;BME280;69727;53.132;8.230;2024-01-30T08:07:16;102462.59;;;6.40;83.12
80401;BME280;69727;53.132;8.230;2024-01-30T08:09:43;102452.69;;;6.52;82.97
80401;BME280;69727;53.132;8.230;2024-01-30T08:12:08;102450.03;;;6.52;82.79
80401;BME280;69727;53.132;8.230;2024-01-30T08:14:34;102449.97;;;6.63;82.26
80401;BME280;69727;53.132;8.230;2024-01-30T08:16:59;102446.78;;;6.69;82.07
80401;BME280;69727;53.132;8.230;2024-01-30T08:19:25;102432.25;;;6.62;82.51
80401;BME280;69727;53.132;8.230;2024-01-30T08:21:50;102438.03;;;6.67;82.45
80401;BME280;69727;53.132;8.230;2024-01-30T08:24:16;102421.84;;;6.59;82.20
80401;BME280;69727;53.132;8.230;2024-01-30T08:26:41;102437.38;;;6.75;82.54
80401;BME280;69727;53.132;8.230;2024-01-30T08:29:06;102435.50;;;6.86;81.96
80401;BME280;69727;53.132;8.230;2024-01-30T08:31:32;102421.88;;;6.89;81.97
80401;BME280;69727;53.132;8.230;2024-01-30T08:33:57;102431.00;;;6.87;82.57
80401;BME280;69727;53.132;8.230;2024-01-30T08:36:23;102428.78;;;6.92;82.13
80401;BME280;69727;53.132;8.230;2024-01-30T08:38:49;102424.72;;;6.97;82.21
80401;BME280;69727;53.132;8.230;2024-01-30T08:41:14;102429.41;;;7.05;82.34
80401;BME280;69727;53.132;8.230;2024-01-30T08:43:40;102417.50;;;7.19;81.41
80401;BME280;69727;53.132;8.230;2024-01-30T08:46:05;102417.53;;;7.28;81.54
80401;BME280;69727;53.132;8.230;2024-01-30T08:48:31;102419.25;;;7.39;80.84
80401;BME280;69727;53.132;8.230;2024-01-30T08:50:56;102422.50;;;7.42;80.91
80401;BME280;69727;53.132;8.230;2024-01-30T08:53:21;102421.25;;;7.66;80.28
80401;BME280;69727;53.132;8.230;2024-01-30T08:55:47;102424.50;;;7.60;80.73
80401;BME280;69727;53.132;8.230;2024-01-30T08:58:12;102420.41;;;7.65;80.66
80401;BME280;69727;53.132;8.230;2024-01-30T09:00:38;102417.06;;;7.73;80.17
80401;BME280;69727;53.132;8.230;2024-01-30T09:03:03;102413.84;;;7.88;79.90
80401;BME280;69727;53.132;8.230;2024-01-30T09:05:29;102409.63;;;7.96;79.91
80401;BME280;69727;53.132;8.230;2024-01-30T09:07:55;102405.81;;;8.08;79.37
80401;BME280;69727;53.132;8.230;2024-01-30T09:10:20;102399.63;;;8.07;79.66
80401;BME280;69727;53.132;8.230;2024-01-30T09:12:46;102414.97;;;8.15;79.02
80401;BME280;69727;53.132;8.230;2024-01-30T09:15:12;102415.81;;;8.25;79.17
80401;BME280;69727;53.132;8.230;2024-01-30T09:17:37;102434.72;;;8.33;78.91
80401;BME280;69727;53.132;8.230;2024-01-30T09:20:03;102443.88;;;8.40;78.60
80401;BME280;69727;53.132;8.230;2024-01-30T09:22:29;102432.72;;;8.45;78.56
80401;BME280;69727;53.132;8.230;2024-01-30T09:24:54;102433.84;;;8.52;78.12
80401;BME280;69727;53.132;8.230;2024-01-30T09:27:20;102442.56;;;8.54;78.04
80401;BME280;69727;53.132;8.230;2024-01-30T09:29:45;102445.78;;;8.67;77.78
80401;BME280;69727;53.132;8.230;2024-01-30T09:32:10;102436.47;;;8.71;77.73
80401;BME280;69727;53.132;8.230;2024-01-30T09:34:36;102442.66;;;8.72;77.96
80401;BME280;69727;53.132;8.230;2024-01-30T09:37:01;102438.13;;;8.82;77.19
80401;BME280;69727;53.132;8.230;2024-01-30T09:39:27;102450.69;;;8.81;77.25
80401;BME280;69727;53.132;8.230;2024-01-30T09:44:44;102440.50;;;8.85;76.78
80401;BME280;69727;53.132;8.230;2024-01-30T09:47:11;102444.16;;;8.93;76.96
80401;BME280;69727;53.132;8.230;2024-01-30T09:49:38;102460.22;;;9.03;76.63
80401;BME280;69727;53.132;8.230;2024-01-30T09:52:05;102451.00;;;9.05;76.67
80401;BME280;69727;53.132;8.230;2024-01-30T09:54:31;102462.88;;;9.03;77.09
80401;BME280;69727;53.132;8.230;2024-01-30T09:56:59;102461.13;;;9.12;76.40
80401;BME280;69727;53.132;8.230;2024-01-30T09:59:25;102456.75;;;9.20;76.19
80401;BME280;69727;53.132;8.230;2024-01-30T10:01:50;102463.91;;;9.29;75.64
80401;BME280;69727;53.132;8.230;2024-01-30T10:04:16;102457.56;;;9.30;75.84
80401;BME280;69727;53.132;8.230;2024-01-30T10:06:42;102457.56;;;9.30;75.49
80401;BME280;69727;53.132;8.230;2024-01-30T10:09:07;102446.25;;;9.36;76.11
80401;BME280;69727;53.132;8.230;2024-01-30T10:11:34;102453.81;;;9.41;76.08
80401;BME280;69727;53.132;8.230;2024-01-30T10:14:00;102444.34;;;9.46;75.85
80401;BME280;69727;53.132;8.230;2024-01-30T10:16:26;102443.44;;;9.56;75.31
80401;BME280;69727;53.132;8.230;2024-01-30T10:18:51;102449.50;;;9.58;75.58
80401;BME280;69727;53.132;8.230;2024-01-30T10:21:16;102451.88;;;9.61;75.22
80401;BME280;69727;53.132;8.230;2024-01-30T10:23:43;102456.25;;;9.62;75.00
80401;BME280;69727;53.132;8.230;2024-01-30T10:26:10;102453.00;;;9.85;74.71
80401;BME280;69727;53.132;8.230;2024-01-30T10:28:36;102448.53;;;9.76;74.82
80401;BME280;69727;53.132;8.230;2024-01-30T10:31:02;102430.47;;;9.78;74.63
80401;BME280;69727;53.132;8.230;2024-01-30T10:33:31;102443.41;;;9.83;74.73
80401;BME280;69727;53.132;8.230;2024-01-30T10:36:02;102435.44;;;9.91;74.28
80401;BME280;69727;53.132;8.230;2024-01-30T10:38:29;102444.56;;;9.98;74.08
80401;BME280;69727;53.132;8.230;2024-01-30T10:40:59;102432.38;;;10.04;74.06
80401;BME280;69727;53.132;8.230;2024-01-30T10:43:35;102428.56;;;10.06;73.83
80401;BME280;69727;53.132;8.230;2024-01-30T10:46:18;102430.09;;;10.09;73.84
80401;BME280;69727;53.132;8.230;2024-01-30T10:48:49;102435.69;;;10.15;73.89
80401;BME280;69727;53.132;8.230;2024-01-30T10:51:16;102443.16;;;10.21;73.73
80401;BME280;69727;53.132;8.230;2024-01-30T10:53:44;102439.22;;;10.34;73.58
80401;BME280;69727;53.132;8.230;2024-01-30T10:56:11;102432.31;;;10.31;73.45
80401;BME280;69727;53.132;8.230;2024-01-30T10:58:38;102435.41;;;10.36;73.31
80401;BME280;69727;53.132;8.230;2024-01-30T11:01:05;102441.28;;;10.40;73.53
80401;BME280;69727;53.132;8.230;2024-01-30T11:03:32;102438.50;;;10.49;73.08
80401;BME280;69727;53.132;8.230;2024-01-30T11:06:00;102430.81;;;10.54;73.14
80401;BME280;69727;53.132;8.230;2024-01-30T11:08:26;102429.50;;;10.58;72.72
80401;BME280;69727;53.132;8.230;2024-01-30T11:10:56;102436.41;;;10.61;73.26
80401;BME280;69727;53.132;8.230;2024-01-30T11:13:29;102433.41;;;10.64;73.00
80401;BME280;69727;53.132;8.230;2024-01-30T11:15:55;102431.41;;;10.66;72.78
80401;BME280;69727;53.132;8.230;2024-01-30T11:18:29;102436.69;;;10.76;73.04
80401;BME280;69727;53.132;8.230;2024-01-30T11:21:00;102434.47;;;10.71;73.03
80401;BME280;69727;53.132;8.230;2024-01-30T11:23:27;102426.09;;;10.74;72.85
80401;BME280;69727;53.132;8.230;2024-01-30T11:25:54;102430.09;;;10.70;73.17
80401;BME280;69727;53.132;8.230;2024-01-30T11:28:21;102430.50;;;10.83;72.95
80401;BME280;69727;53.132;8.230;2024-01-30T11:30:47;102434.09;;;10.92;72.73
80401;BME280;69727;53.132;8.230;2024-01-30T11:33:27;102420.72;;;11.00;72.38
80401;BME280;69727;53.132;8.230;2024-01-30T11:35:57;102427.09;;;10.99;72.68
80401;BME280;69727;53.132;8.230;2024-01-30T11:38:25;102427.34;;;10.88;73.10
80401;BME280;69727;53.132;8.230;2024-01-30T11:40:51;102433.91;;;10.93;73.01
80401;BME280;69727;53.132;8.230;2024-01-30T11:43:18;102434.44;;;10.97;72.86
80401;BME280;69727;53.132;8.230;2024-01-30T11:45:44;102428.09;;;10.98;72.81
80401;BME280;69727;53.132;8.230;2024-01-30T11:48:12;102427.72;;;10.93;73.10
80401;BME280;69727;53.132;8.230;2024-01-30T11:50:38;102426.53;;;10.95;73.16
80401;BME280;69727;53.132;8.230;2024-01-30T11:53:04;102422.91;;;11.05;72.91
80401;BME280;69727;53.132;8.230;2024-01-30T11:55:30;102428.13;;;11.06;72.92
80401;BME280;69727;53.132;8.230;2024-01-30T11:57:57;102428.00;;;11.16;72.60
80401;BME280;69727;53.132;8.230;2024-01-30T12:00:22;102436.00;;;10.99;73.29
80401;BME280;69727;53.132;8.230;2024-01-30T12:02:52;102419.88;;;11.08;73.48
80401;BME280;69727;53.132;8.230;2024-01-30T12:05:21;102422.66;;;11.24;72.73
80401;BME280;69727;53.132;8.230;2024-01-30T12:07:47;102421.97;;;11.22;72.98
80401;BME280;69727;53.132;8.230;2024-01-30T12:10:13;102432.38;;;11.17;73.19
80401;BME280;69727;53.132;8.230;2024-01-30T12:12:49;102416.72;;;11.12;73.29
80401;BME280;69727;53.132;8.230;2024-01-30T12:15:16;102417.56;;;11.13;73.57
80401;BME280;69727;53.132;8.230;2024-01-30T12:17:41;102415.22;;;11.18;73.61
80401;BME280;69727;53.132;8.230;2024-01-30T12:20:14;102419.28;;;11.22;73.39
80401;BME280;69727;53.132;8.230;2024-01-30T12:22:45;102422.78;;;11.14;73.79
80401;BME280;69727;53.132;8.230;2024-01-30T12:25:12;102427.28;;;11.06;74.26
80401;BME280;69727;53.132;8.230;2024-01-30T12:27:39;102421.25;;;11.12;74.10
80401;BME280;69727;53.132;8.230;2024-01-30T12:30:09;102424.63;;;11.14;74.01
80401;BME280;69727;53.132;8.230;2024-01-30T12:32:49;102420.09;;;11.14;74.01
80401;BME280;69727;53.132;8.230;2024-01-30T12:35:17;102418.53;;;11.03;74.50
80401;BME280;69727;53.132;8.230;2024-01-30T12:37:44;102411.50;;;11.11;74.28
80401;BME280;69727;53.132;8.230;2024-01-30T12:40:14;102409.66;;;11.11;74.10
80401;BME280;69727;53.132;8.230;2024-01-30T12:42:40;102408.63;;;11.04;74.75
80401;BME280;69727;53.132;8.230;2024-01-30T12:45:08;102414.72;;;11.14;74.67
80401;BME280;69727;53.132;8.230;2024-01-30T12:47:34;102413.19;;;11.12;74.64
80401;BME280;69727;53.132;8.230;2024-01-30T12:49:59;102405.09;;;11.03;74.96
80401;BME280;69727;53.132;8.230;2024-01-30T12:52:25;102401.72;;;11.01;75.03
80401;BME280;69727;53.132;8.230;2024-01-30T12:54:51;102408.94;;;11.01;75.47